Rock Creek, Ohio
Current Conditions -  °F | °C
As of 3:53 PM on Friday 31 Oct 2014 (Local Time) from KHZY Reporting Station
Overcast Overcast  
Wind Chill:   Ceiling: 4400
Heat Index:   Visibility: 10mi
Dew Point:   Wind: 0mph
Humidity: 66%   Direction: NA
Pressure: 29.86"   Gusts: NA
Location:  41.66°N, 80.86°W
Report Text: KHZY 311953Z AUTO 00000KT 10SM FEW036 OVC044 08/02 A2986 RMK AO2 SLP115 T00830022
Loading
Personal Weather Stations






























Interactive Weather Map
Tropical Storm Tracking
New forecast layout! Learn more

10-Day Weather Forecast

Advertisements
Track Severe Weather on mobile